sensor_id;sensor_type;location;lat;lon;timestamp;pressure;altitude;pressure_sealevel;temperature;humidity
46464;BME280;32161;48.148;-1.554;2023-07-30T00:01:21;100927.81;;;17.15;92.49
46464;BME280;32161;48.148;-1.554;2023-07-30T00:03:48;100925.31;;;17.14;92.19
46464;BME280;32161;48.148;-1.554;2023-07-30T00:06:16;100918.47;;;17.11;92.08
46464;BME280;32161;48.148;-1.554;2023-07-30T00:08:44;100920.09;;;17.07;91.94
46464;BME280;32161;48.148;-1.554;2023-07-30T00:11:12;100920.09;;;17.07;92.00
46464;BME280;32161;48.148;-1.554;2023-07-30T00:13:39;100923.63;;;17.02;91.76
46464;BME280;32161;48.148;-1.554;2023-07-30T00:16:07;100920.06;;;16.97;92.19
46464;BME280;32161;48.148;-1.554;2023-07-30T00:18:35;100931.56;;;16.94;92.18
46464;BME280;32161;48.148;-1.554;2023-07-30T00:21:02;100934.59;;;16.92;91.98
46464;BME280;32161;48.148;-1.554;2023-07-30T00:23:30;100933.47;;;16.88;92.03
46464;BME280;32161;48.148;-1.554;2023-07-30T00:25:59;100935.66;;;16.86;92.51
46464;BME280;32161;48.148;-1.554;2023-07-30T00:28:26;100933.19;;;16.84;92.23
46464;BME280;32161;48.148;-1.554;2023-07-30T00:30:54;100930.97;;;16.81;92.50
46464;BME280;32161;48.148;-1.554;2023-07-30T00:33:21;100930.13;;;16.81;92.48
46464;BME280;32161;48.148;-1.554;2023-07-30T00:35:51;100930.66;;;16.78;92.64
46464;BME280;32161;48.148;-1.554;2023-07-30T00:38:19;100934.22;;;16.78;92.72
46464;BME280;32161;48.148;-1.554;2023-07-30T00:40:47;100938.09;;;16.77;92.70
46464;BME280;32161;48.148;-1.554;2023-07-30T00:43:16;100936.44;;;16.76;92.53
46464;BME280;32161;48.148;-1.554;2023-07-30T00:45:44;100930.38;;;16.74;92.58
46464;BME280;32161;48.148;-1.554;2023-07-30T00:48:13;100928.94;;;16.72;93.21
46464;BME280;32161;48.148;-1.554;2023-07-30T00:50:42;100934.72;;;16.70;93.12
46464;BME280;32161;48.148;-1.554;2023-07-30T00:53:12;100929.50;;;16.69;92.96
46464;BME280;32161;48.148;-1.554;2023-07-30T00:55:41;100937.97;;;16.67;92.89
46464;BME280;32161;48.148;-1.554;2023-07-30T00:58:10;100939.09;;;16.66;93.05
46464;BME280;32161;48.148;-1.554;2023-07-30T01:00:40;100943.19;;;16.64;93.03
46464;BME280;32161;48.148;-1.554;2023-07-30T01:03:08;100936.31;;;16.61;93.40
46464;BME280;32161;48.148;-1.554;2023-07-30T01:05:35;100939.59;;;16.58;93.15
46464;BME280;32161;48.148;-1.554;2023-07-30T01:08:03;100936.28;;;16.56;93.15
46464;BME280;32161;48.148;-1.554;2023-07-30T01:10:32;100940.13;;;16.55;93.50
46464;BME280;32161;48.148;-1.554;2023-07-30T01:13:01;100939.56;;;16.53;93.59
46464;BME280;32161;48.148;-1.554;2023-07-30T01:15:30;100945.06;;;16.53;93.73
46464;BME280;32161;48.148;-1.554;2023-07-30T01:18:00;100940.63;;;16.52;93.63
46464;BME280;32161;48.148;-1.554;2023-07-30T01:20:30;100946.66;;;16.49;93.90
46464;BME280;32161;48.148;-1.554;2023-07-30T01:22:59;100954.34;;;16.47;94.30
46464;BME280;32161;48.148;-1.554;2023-07-30T01:25:29;100948.84;;;16.47;94.48
46464;BME280;32161;48.148;-1.554;2023-07-30T01:28:01;100950.50;;;16.48;94.42
46464;BME280;32161;48.148;-1.554;2023-07-30T01:30:35;100942.03;;;16.49;94.47
46464;BME280;32161;48.148;-1.554;2023-07-30T01:33:05;100948.31;;;16.50;94.59
46464;BME280;32161;48.148;-1.554;2023-07-30T01:35:33;100945.84;;;16.48;94.78
46464;BME280;32161;48.148;-1.554;2023-07-30T01:38:04;100947.50;;;16.49;95.10
46464;BME280;32161;48.148;-1.554;2023-07-30T01:40:31;100939.81;;;16.46;95.41
46464;BME280;32161;48.148;-1.554;2023-07-30T01:42:59;100938.69;;;16.47;95.60
46464;BME280;32161;48.148;-1.554;2023-07-30T01:45:27;100947.75;;;16.48;95.59
46464;BME280;32161;48.148;-1.554;2023-07-30T01:47:54;100943.66;;;16.50;95.62
46464;BME280;32161;48.148;-1.554;2023-07-30T01:50:22;100950.25;;;16.49;96.30
46464;BME280;32161;48.148;-1.554;2023-07-30T01:52:49;100959.56;;;16.48;96.47
46464;BME280;32161;48.148;-1.554;2023-07-30T01:55:18;100949.41;;;16.49;96.64
46464;BME280;32161;48.148;-1.554;2023-07-30T01:57:46;100953.81;;;16.50;96.64
46464;BME280;32161;48.148;-1.554;2023-07-30T02:00:13;100959.84;;;16.52;96.28
46464;BME280;32161;48.148;-1.554;2023-07-30T02:02:41;100959.31;;;16.50;96.36
46464;BME280;32161;48.148;-1.554;2023-07-30T02:05:08;100970.28;;;16.50;96.36
46464;BME280;32161;48.148;-1.554;2023-07-30T02:07:36;100966.97;;;16.48;96.28
46464;BME280;32161;48.148;-1.554;2023-07-30T02:10:04;100964.50;;;16.46;96.43
46464;BME280;32161;48.148;-1.554;2023-07-30T02:12:34;100961.75;;;16.46;96.64
46464;BME280;32161;48.148;-1.554;2023-07-30T02:15:01;100957.63;;;16.49;96.80
46464;BME280;32161;48.148;-1.554;2023-07-30T02:17:29;100968.59;;;16.49;96.96
46464;BME280;32161;48.148;-1.554;2023-07-30T02:19:56;100966.16;;;16.52;96.80
46464;BME280;32161;48.148;-1.554;2023-07-30T02:22:24;100964.50;;;16.51;97.32
46464;BME280;32161;48.148;-1.554;2023-07-30T02:24:51;100951.63;;;16.52;97.57
46464;BME280;32161;48.148;-1.554;2023-07-30T02:27:19;100953.28;;;16.53;97.52
46464;BME280;32161;48.148;-1.554;2023-07-30T02:29:48;100959.31;;;16.55;97.72
46464;BME280;32161;48.148;-1.554;2023-07-30T02:32:16;100960.72;;;16.57;97.79
46464;BME280;32161;48.148;-1.554;2023-07-30T02:34:44;100963.19;;;16.59;97.93
46464;BME280;32161;48.148;-1.554;2023-07-30T02:37:11;100957.47;;;16.60;98.21
46464;BME280;32161;48.148;-1.554;2023-07-30T02:39:39;100954.44;;;16.62;98.56
46464;BME280;32161;48.148;-1.554;2023-07-30T02:42:07;100959.66;;;16.64;98.88
46464;BME280;32161;48.148;-1.554;2023-07-30T02:44:34;100960.75;;;16.68;98.61
46464;BME280;32161;48.148;-1.554;2023-07-30T02:47:04;100960.75;;;16.68;98.66
46464;BME280;32161;48.148;-1.554;2023-07-30T02:49:31;100962.16;;;16.70;98.86
46464;BME280;32161;48.148;-1.554;2023-07-30T02:51:59;100958.31;;;16.71;99.14
46464;BME280;32161;48.148;-1.554;2023-07-30T02:54:27;100955.56;;;16.71;98.98
46464;BME280;32161;48.148;-1.554;2023-07-30T02:56:54;100960.81;;;16.73;98.95
46464;BME280;32161;48.148;-1.554;2023-07-30T02:59:22;100957.25;;;16.72;99.06
46464;BME280;32161;48.148;-1.554;2023-07-30T03:01:49;100958.06;;;16.73;99.04
46464;BME280;32161;48.148;-1.554;2023-07-30T03:04:18;100963.81;;;16.71;99.29
46464;BME280;32161;48.148;-1.554;2023-07-30T03:06:45;100958.06;;;16.73;99.49
46464;BME280;32161;48.148;-1.554;2023-07-30T03:09:13;100961.97;;;16.77;99.14
46464;BME280;32161;48.148;-1.554;2023-07-30T03:11:41;100969.94;;;16.78;99.20
46464;BME280;32161;48.148;-1.554;2023-07-30T03:14:08;100967.19;;;16.78;98.53
46464;BME280;32161;48.148;-1.554;2023-07-30T03:16:36;100958.69;;;16.80;98.96
46464;BME280;32161;48.148;-1.554;2023-07-30T03:19:03;100967.75;;;16.80;98.97
46464;BME280;32161;48.148;-1.554;2023-07-30T03:21:32;100977.94;;;16.85;99.05
46464;BME280;32161;48.148;-1.554;2023-07-30T03:24:00;100982.31;;;16.86;98.93
46464;BME280;32161;48.148;-1.554;2023-07-30T03:26:27;100982.31;;;16.86;98.77
46464;BME280;32161;48.148;-1.554;2023-07-30T03:28:55;100980.41;;;16.87;98.84
46464;BME280;32161;48.148;-1.554;2023-07-30T03:31:22;100974.91;;;16.87;98.66
46464;BME280;32161;48.148;-1.554;2023-07-30T03:33:50;100981.78;;;16.89;98.93
46464;BME280;32161;48.148;-1.554;2023-07-30T03:36:17;100983.19;;;16.92;98.13
46464;BME280;32161;48.148;-1.554;2023-07-30T03:38:46;100993.59;;;16.90;97.83
46464;BME280;32161;48.148;-1.554;2023-07-30T03:41:14;100994.69;;;16.89;97.21
46464;BME280;32161;48.148;-1.554;2023-07-30T03:43:41;100996.06;;;16.86;96.63
46464;BME280;32161;48.148;-1.554;2023-07-30T03:46:09;101001.00;;;16.84;96.29
46464;BME280;32161;48.148;-1.554;2023-07-30T03:48:36;101001.78;;;16.79;96.03
46464;BME280;32161;48.148;-1.554;2023-07-30T03:51:04;100997.06;;;16.75;96.26
46464;BME280;32161;48.148;-1.554;2023-07-30T03:53:33;101004.97;;;16.71;96.19
46464;BME280;32161;48.148;-1.554;2023-07-30T03:56:02;101016.53;;;16.68;95.78
46464;BME280;32161;48.148;-1.554;2023-07-30T03:58:29;101016.75;;;16.67;95.90
46464;BME280;32161;48.148;-1.554;2023-07-30T04:00:57;101028.03;;;16.65;95.81
46464;BME280;32161;48.148;-1.554;2023-07-30T04:03:25;101021.94;;;16.58;96.24
46464;BME280;32161;48.148;-1.554;2023-07-30T04:05:52;101011.47;;;16.55;96.13
46464;BME280;32161;48.148;-1.554;2023-07-30T04:08:20;101015.31;;;16.54;95.97
46464;BME280;32161;48.148;-1.554;2023-07-30T04:10:48;101017.75;;;16.50;96.06
46464;BME280;32161;48.148;-1.554;2023-07-30T04:13:17;101019.63;;;16.45;96.04
46464;BME280;32161;48.148;-1.554;2023-07-30T04:15:46;101017.41;;;16.42;96.26
46464;BME280;32161;48.148;-1.554;2023-07-30T04:18:14;101033.31;;;16.40;96.45
46464;BME280;32161;48.148;-1.554;2023-07-30T04:20:42;101025.59;;;16.36;96.13
46464;BME280;32161;48.148;-1.554;2023-07-30T04:23:09;101023.13;;;16.35;96.75
46464;BME280;32161;48.148;-1.554;2023-07-30T04:25:37;101027.78;;;16.34;97.47
46464;BME280;32161;48.148;-1.554;2023-07-30T04:28:04;101032.16;;;16.35;97.70
46464;BME280;32161;48.148;-1.554;2023-07-30T04:30:34;101031.91;;;16.37;98.11
46464;BME280;32161;48.148;-1.554;2023-07-30T04:33:02;101037.38;;;16.37;98.27
46464;BME280;32161;48.148;-1.554;2023-07-30T04:35:29;101043.72;;;16.38;98.52
46464;BME280;32161;48.148;-1.554;2023-07-30T04:37:57;101039.31;;;16.36;98.90
46464;BME280;32161;48.148;-1.554;2023-07-30T04:40:24;101043.72;;;16.38;99.39
46464;BME280;32161;48.148;-1.554;2023-07-30T04:42:52;101037.16;;;16.39;99.24
46464;BME280;32161;48.148;-1.554;2023-07-30T04:45:19;101050.34;;;16.42;99.55
46464;BME280;32161;48.148;-1.554;2023-07-30T04:47:48;101041.84;;;16.43;99.73
46464;BME280;32161;48.148;-1.554;2023-07-30T04:50:16;101039.41;;;16.47;99.49
46464;BME280;32161;48.148;-1.554;2023-07-30T04:52:44;101040.22;;;16.47;99.90
46464;BME280;32161;48.148;-1.554;2023-07-30T04:55:11;101037.19;;;16.49;99.96
46464;BME280;32161;48.148;-1.554;2023-07-30T04:57:39;101040.53;;;16.51;100.00
46464;BME280;32161;48.148;-1.554;2023-07-30T05:00:07;101040.53;;;16.51;99.97
46464;BME280;32161;48.148;-1.554;2023-07-30T05:02:35;101039.44;;;16.52;100.00
46464;BME280;32161;48.148;-1.554;2023-07-30T05:05:05;101035.63;;;16.53;100.00
46464;BME280;32161;48.148;-1.554;2023-07-30T05:07:33;101040.56;;;16.56;100.00
46464;BME280;32161;48.148;-1.554;2023-07-30T05:10:01;101029.06;;;16.59;100.00
46464;BME280;32161;48.148;-1.554;2023-07-30T05:12:30;101041.16;;;16.63;100.00
46464;BME280;32161;48.148;-1.554;2023-07-30T05:14:57;101049.97;;;16.65;100.00
46464;BME280;32161;48.148;-1.554;2023-07-30T05:17:25;101047.78;;;16.67;100.00
46464;BME280;32161;48.148;-1.554;2023-07-30T05:19:52;101045.31;;;16.66;100.00
46464;BME280;32161;48.148;-1.554;2023-07-30T05:22:21;101042.28;;;16.67;100.00
46464;BME280;32161;48.148;-1.554;2023-07-30T05:24:51;101048.34;;;16.69;100.00
46464;BME280;32161;48.148;-1.554;2023-07-30T05:27:18;101044.56;;;16.75;100.00
46464;BME280;32161;48.148;-1.554;2023-07-30T05:29:46;101036.34;;;16.75;99.84
46464;BME280;32161;48.148;-1.554;2023-07-30T05:32:14;101038.25;;;16.75;100.00
46464;BME280;32161;48.148;-1.554;2023-07-30T05:34:42;101044.88;;;16.79;100.00
46464;BME280;32161;48.148;-1.554;2023-07-30T05:37:09;101052.03;;;16.80;99.82
46464;BME280;32161;48.148;-1.554;2023-07-30T05:39:38;101058.91;;;16.82;100.00
46464;BME280;32161;48.148;-1.554;2023-07-30T05:42:06;101051.25;;;16.84;100.00
46464;BME280;32161;48.148;-1.554;2023-07-30T05:44:33;101062.78;;;16.87;100.00
46464;BME280;32161;48.148;-1.554;2023-07-30T05:47:01;101068.84;;;16.89;100.00
46464;BME280;32161;48.148;-1.554;2023-07-30T05:49:29;101076.56;;;16.92;100.00
46464;BME280;32161;48.148;-1.554;2023-07-30T05:51:56;101076.84;;;16.95;100.00
46464;BME280;32161;48.148;-1.554;2023-07-30T05:54:24;101067.00;;;16.99;100.00
46464;BME280;32161;48.148;-1.554;2023-07-30T05:56:52;101079.34;;;17.02;100.00
46464;BME280;32161;48.148;-1.554;2023-07-30T05:59:21;101082.66;;;17.04;100.00
46464;BME280;32161;48.148;-1.554;2023-07-30T06:01:49;101080.75;;;17.09;100.00
46464;BME280;32161;48.148;-1.554;2023-07-30T06:04:16;101077.78;;;17.11;100.00
46464;BME280;32161;48.148;-1.554;2023-07-30T06:06:44;101081.63;;;17.15;100.00
46464;BME280;32161;48.148;-1.554;2023-07-30T06:09:11;101089.91;;;17.20;100.00
46464;BME280;32161;48.148;-1.554;2023-07-30T06:11:39;101097.63;;;17.23;100.00
46464;BME280;32161;48.148;-1.554;2023-07-30T06:14:08;101096.00;;;17.27;100.00
46464;BME280;32161;48.148;-1.554;2023-07-30T06:16:35;101103.19;;;17.33;100.00
46464;BME280;32161;48.148;-1.554;2023-07-30T06:19:03;101098.22;;;17.36;99.30
46464;BME280;32161;48.148;-1.554;2023-07-30T06:21:31;101099.63;;;17.38;99.47
46464;BME280;32161;48.148;-1.554;2023-07-30T06:23:59;101103.22;;;17.44;99.17
46464;BME280;32161;48.148;-1.554;2023-07-30T06:26:26;101103.78;;;17.46;99.28
46464;BME280;32161;48.148;-1.554;2023-07-30T06:28:54;101102.69;;;17.52;99.32
46464;BME280;32161;48.148;-1.554;2023-07-30T06:31:22;101097.78;;;17.59;98.81
46464;BME280;32161;48.148;-1.554;2023-07-30T06:33:50;101103.56;;;17.63;98.78
46464;BME280;32161;48.148;-1.554;2023-07-30T06:36:18;101104.94;;;17.60;98.86
46464;BME280;32161;48.148;-1.554;2023-07-30T06:38:45;101108.00;;;17.69;97.92
46464;BME280;32161;48.148;-1.554;2023-07-30T06:41:13;101103.88;;;17.66;97.69
46464;BME280;32161;48.148;-1.554;2023-07-30T06:43:41;101105.81;;;17.71;97.36
46464;BME280;32161;48.148;-1.554;2023-07-30T06:46:08;101099.81;;;17.79;97.02
46464;BME280;32161;48.148;-1.554;2023-07-30T06:48:37;101106.41;;;17.78;96.40
46464;BME280;32161;48.148;-1.554;2023-07-30T06:51:06;101102.84;;;17.77;96.36
46464;BME280;32161;48.148;-1.554;2023-07-30T06:53:34;101106.69;;;17.81;96.35
46464;BME280;32161;48.148;-1.554;2023-07-30T06:56:02;101112.78;;;17.89;96.02
46464;BME280;32161;48.148;-1.554;2023-07-30T06:58:29;101111.69;;;17.95;96.07
46464;BME280;32161;48.148;-1.554;2023-07-30T07:00:57;101121.63;;;18.01;96.37
46464;BME280;32161;48.148;-1.554;2023-07-30T07:03:24;101124.94;;;18.13;95.43
46464;BME280;32161;48.148;-1.554;2023-07-30T07:05:56;101125.47;;;18.05;95.19
46464;BME280;32161;48.148;-1.554;2023-07-30T07:08:24;101129.38;;;18.14;94.38
46464;BME280;32161;48.148;-1.554;2023-07-30T07:10:53;101137.63;;;18.14;95.58
46464;BME280;32161;48.148;-1.554;2023-07-30T07:13:20;101130.97;;;18.10;95.01
46464;BME280;32161;48.148;-1.554;2023-07-30T07:15:48;101138.16;;;18.21;95.47
46464;BME280;32161;48.148;-1.554;2023-07-30T07:18:15;101132.16;;;18.29;95.86
46464;BME280;32161;48.148;-1.554;2023-07-30T07:20:43;101127.19;;;18.37;95.38
46464;BME280;32161;48.148;-1.554;2023-07-30T07:23:12;101137.41;;;18.41;94.17
46464;BME280;32161;48.148;-1.554;2023-07-30T07:25:39;101132.44;;;18.48;95.25
46464;BME280;32161;48.148;-1.554;2023-07-30T07:28:07;101142.34;;;18.60;96.18
46464;BME280;32161;48.148;-1.554;2023-07-30T07:30:35;101140.44;;;18.65;94.06
46464;BME280;32161;48.148;-1.554;2023-07-30T07:33:03;101143.78;;;18.72;93.15
46464;BME280;32161;48.148;-1.554;2023-07-30T07:35:32;101152.03;;;18.77;92.53
46464;BME280;32161;48.148;-1.554;2023-07-30T07:38:00;101148.19;;;18.89;91.93
46464;BME280;32161;48.148;-1.554;2023-07-30T07:40:28;101151.50;;;18.96;92.16
46464;BME280;32161;48.148;-1.554;2023-07-30T07:42:56;101152.31;;;19.01;92.71
46464;BME280;32161;48.148;-1.554;2023-07-30T07:45:24;101149.56;;;19.12;91.68
46464;BME280;32161;48.148;-1.554;2023-07-30T07:47:52;101152.03;;;19.18;89.79
46464;BME280;32161;48.148;-1.554;2023-07-30T07:50:19;101149.84;;;19.00;89.83
46464;BME280;32161;48.148;-1.554;2023-07-30T07:52:47;101158.38;;;19.09;89.95
46464;BME280;32161;48.148;-1.554;2023-07-30T07:55:14;101158.06;;;19.10;89.41
46464;BME280;32161;48.148;-1.554;2023-07-30T07:57:43;101157.81;;;19.22;89.99
46464;BME280;32161;48.148;-1.554;2023-07-30T08:00:11;101164.41;;;19.21;89.14
46464;BME280;32161;48.148;-1.554;2023-07-30T08:02:39;101165.22;;;19.21;88.63
46464;BME280;32161;48.148;-1.554;2023-07-30T08:05:07;101172.66;;;19.36;87.50
46464;BME280;32161;48.148;-1.554;2023-07-30T08:07:35;101175.69;;;19.40;86.31
46464;BME280;32161;48.148;-1.554;2023-07-30T08:10:03;101167.69;;;19.43;85.85
46464;BME280;32161;48.148;-1.554;2023-07-30T08:12:32;101166.34;;;19.31;86.00
46464;BME280;32161;48.148;-1.554;2023-07-30T08:15:01;101161.63;;;19.41;86.28
46464;BME280;32161;48.148;-1.554;2023-07-30T08:17:28;101170.69;;;19.52;86.99
46464;BME280;32161;48.148;-1.554;2023-07-30T08:19:56;101165.72;;;19.59;85.73
46464;BME280;32161;48.148;-1.554;2023-07-30T08:22:23;101169.56;;;19.73;85.31
46464;BME280;32161;48.148;-1.554;2023-07-30T08:24:51;101171.75;;;19.82;83.41
46464;BME280;32161;48.148;-1.554;2023-07-30T08:27:18;101168.19;;;19.71;83.81
46464;BME280;32161;48.148;-1.554;2023-07-30T08:29:46;101166.78;;;19.79;84.53
46464;BME280;32161;48.148;-1.554;2023-07-30T08:32:15;101176.66;;;19.95;83.48
46464;BME280;32161;48.148;-1.554;2023-07-30T08:34:42;101177.38;;;20.16;80.84
46464;BME280;32161;48.148;-1.554;2023-07-30T08:37:10;101175.09;;;20.28;79.28
46464;BME280;32161;48.148;-1.554;2023-07-30T08:39:37;101178.13;;;20.32;78.33
46464;BME280;32161;48.148;-1.554;2023-07-30T08:42:05;101178.06;;;20.37;79.36
46464;BME280;32161;48.148;-1.554;2023-07-30T08:44:33;101178.00;;;20.57;79.03
46464;BME280;32161;48.148;-1.554;2023-07-30T08:47:01;101180.09;;;20.70;80.29
46464;BME280;32161;48.148;-1.554;2023-07-30T08:49:31;101182.72;;;20.91;80.14
46464;BME280;32161;48.148;-1.554;2023-07-30T08:52:00;101182.06;;;21.04;79.02
46464;BME280;32161;48.148;-1.554;2023-07-30T08:54:31;101178.97;;;21.11;77.32
46464;BME280;32161;48.148;-1.554;2023-07-30T08:56:59;101186.63;;;21.19;78.08
46464;BME280;32161;48.148;-1.554;2023-07-30T08:59:29;101176.88;;;21.27;77.51
46464;BME280;32161;48.148;-1.554;2023-07-30T09:01:59;101184.59;;;21.30;76.49
46464;BME280;32161;48.148;-1.554;2023-07-30T09:04:32;101184.50;;;21.40;76.48
46464;BME280;32161;48.148;-1.554;2023-07-30T09:07:01;101189.34;;;21.53;74.58
46464;BME280;32161;48.148;-1.554;2023-07-30T09:09:29;101191.00;;;21.54;73.41
46464;BME280;32161;48.148;-1.554;2023-07-30T09:11:56;101188.47;;;21.58;73.98
46464;BME280;32161;48.148;-1.554;2023-07-30T09:14:26;101184.56;;;21.59;74.77
46464;BME280;32161;48.148;-1.554;2023-07-30T09:16:57;101190.91;;;21.64;75.28
46464;BME280;32161;48.148;-1.554;2023-07-30T09:19:25;101183.66;;;21.68;74.77
46464;BME280;32161;48.148;-1.554;2023-07-30T09:21:54;101188.31;;;21.73;75.11
46464;BME280;32161;48.148;-1.554;2023-07-30T09:24:22;101182.53;;;21.69;74.46
46464;BME280;32161;48.148;-1.554;2023-07-30T09:26:50;101185.13;;;21.85;74.12
46464;BME280;32161;48.148;-1.554;2023-07-30T09:29:17;101198.16;;;21.79;73.42
46464;BME280;32161;48.148;-1.554;2023-07-30T09:31:54;101207.59;;;21.78;73.90
46464;BME280;32161;48.148;-1.554;2023-07-30T09:34:23;101202.41;;;21.72;74.65
46464;BME280;32161;48.148;-1.554;2023-07-30T09:36:54;101201.25;;;21.78;74.40
46464;BME280;32161;48.148;-1.554;2023-07-30T09:39:24;101205.38;;;21.80;73.87
46464;BME280;32161;48.148;-1.554;2023-07-30T09:42:00;101209.72;;;21.86;73.99
46464;BME280;32161;48.148;-1.554;2023-07-30T09:44:28;101206.19;;;21.81;73.45
46464;BME280;32161;48.148;-1.554;2023-07-30T09:46:55;101200.34;;;21.82;73.30
46464;BME280;32161;48.148;-1.554;2023-07-30T09:49:23;101206.13;;;21.86;73.96
46464;BME280;32161;48.148;-1.554;2023-07-30T09:51:53;101202.72;;;21.94;74.88
46464;BME280;32161;48.148;-1.554;2023-07-30T09:54:21;101200.66;;;22.05;73.83
46464;BME280;32161;48.148;-1.554;2023-07-30T09:56:49;101201.59;;;22.19;74.15
46464;BME280;32161;48.148;-1.554;2023-07-30T09:59:17;101201.09;;;22.12;72.78
46464;BME280;32161;48.148;-1.554;2023-07-30T10:01:48;101203.06;;;22.11;72.23
46464;BME280;32161;48.148;-1.554;2023-07-30T10:04:19;101206.56;;;22.22;73.54
46464;BME280;32161;48.148;-1.554;2023-07-30T10:06:50;101208.88;;;22.34;73.66
46464;BME280;32161;48.148;-1.554;2023-07-30T10:09:24;101201.63;;;22.38;71.83
46464;BME280;32161;48.148;-1.554;2023-07-30T10:11:55;101204.78;;;22.50;71.51
46464;BME280;32161;48.148;-1.554;2023-07-30T10:14:23;101203.88;;;22.55;70.57
46464;BME280;32161;48.148;-1.554;2023-07-30T10:16:55;101221.78;;;22.62;70.10
46464;BME280;32161;48.148;-1.554;2023-07-30T10:19:25;101219.31;;;22.61;70.43
46464;BME280;32161;48.148;-1.554;2023-07-30T10:21:58;101224.84;;;22.61;70.66
46464;BME280;32161;48.148;-1.554;2023-07-30T10:24:28;101219.75;;;22.68;69.61
46464;BME280;32161;48.148;-1.554;2023-07-30T10:26:55;101223.41;;;22.63;70.75
46464;BME280;32161;48.148;-1.554;2023-07-30T10:29:25;101224.25;;;22.64;70.72
46464;BME280;32161;48.148;-1.554;2023-07-30T10:31:55;101226.19;;;22.63;71.19
46464;BME280;32161;48.148;-1.554;2023-07-30T10:34:26;101221.91;;;22.71;71.51
46464;BME280;32161;48.148;-1.554;2023-07-30T10:36:55;101229.03;;;22.77;71.79
46464;BME280;32161;48.148;-1.554;2023-07-30T10:39:28;101230.63;;;22.83;69.77
46464;BME280;32161;48.148;-1.554;2023-07-30T10:41:57;101223.81;;;22.76;69.78
46464;BME280;32161;48.148;-1.554;2023-07-30T10:44:27;101229.13;;;22.72;70.25
46464;BME280;32161;48.148;-1.554;2023-07-30T10:46:57;101222.66;;;22.58;70.29
46464;BME280;32161;48.148;-1.554;2023-07-30T10:49:25;101216.22;;;22.62;70.35
46464;BME280;32161;48.148;-1.554;2023-07-30T10:51:54;101210.44;;;22.78;69.81
46464;BME280;32161;48.148;-1.554;2023-07-30T10:54:23;101218.31;;;22.71;69.67
46464;BME280;32161;48.148;-1.554;2023-07-30T10:56:54;101207.69;;;22.78;70.03
46464;BME280;32161;48.148;-1.554;2023-07-30T10:59:22;101214.50;;;22.66;69.93
46464;BME280;32161;48.148;-1.554;2023-07-30T11:01:50;101211.22;;;22.83;69.09
46464;BME280;32161;48.148;-1.554;2023-07-30T11:04:19;101203.72;;;22.84;68.92
46464;BME280;32161;48.148;-1.554;2023-07-30T11:06:49;101208.66;;;22.87;69.63
46464;BME280;32161;48.148;-1.554;2023-07-30T11:09:22;101201.09;;;22.93;70.11
46464;BME280;32161;48.148;-1.554;2023-07-30T11:11:53;101191.72;;;23.21;69.92
46464;BME280;32161;48.148;-1.554;2023-07-30T11:14:22;101192.47;;;23.27;69.20
46464;BME280;32161;48.148;-1.554;2023-07-30T11:16:54;101201.84;;;23.31;69.12
46464;BME280;32161;48.148;-1.554;2023-07-30T11:19:21;101201.72;;;23.36;67.52
46464;BME280;32161;48.148;-1.554;2023-07-30T11:21:56;101206.69;;;23.39;67.46
46464;BME280;32161;48.148;-1.554;2023-07-30T11:24:34;101217.84;;;23.67;67.68
46464;BME280;32161;48.148;-1.554;2023-07-30T11:27:04;101210.53;;;23.71;67.84
46464;BME280;32161;48.148;-1.554;2023-07-30T11:29:32;101211.50;;;23.80;66.83
46464;BME280;32161;48.148;-1.554;2023-07-30T11:32:00;101208.81;;;23.88;67.28
46464;BME280;32161;48.148;-1.554;2023-07-30T11:34:29;101206.25;;;23.92;67.66
46464;BME280;32161;48.148;-1.554;2023-07-30T11:36:57;101217.97;;;23.89;68.17
46464;BME280;32161;48.148;-1.554;2023-07-30T11:39:26;101213.03;;;23.86;65.90
46464;BME280;32161;48.148;-1.554;2023-07-30T11:41:54;101208.72;;;23.80;65.80
46464;BME280;32161;48.148;-1.554;2023-07-30T11:44:36;101214.56;;;23.78;65.45
46464;BME280;32161;48.148;-1.554;2023-07-30T11:47:05;101218.06;;;23.84;65.90
46464;BME280;32161;48.148;-1.554;2023-07-30T11:49:33;101206.25;;;23.92;65.78
46464;BME280;32161;48.148;-1.554;2023-07-30T11:52:07;101215.19;;;24.03;66.79
46464;BME280;32161;48.148;-1.554;2023-07-30T11:54:35;101199.34;;;24.03;65.70
46464;BME280;32161;48.148;-1.554;2023-07-30T11:57:03;101201.41;;;24.11;66.62
46464;BME280;32161;48.148;-1.554;2023-07-30T11:59:32;101194.78;;;24.21;67.59
46464;BME280;32161;48.148;-1.554;2023-07-30T12:02:00;101198.09;;;24.23;65.92
46464;BME280;32161;48.148;-1.554;2023-07-30T12:04:31;101202.50;;;24.24;65.29
46464;BME280;32161;48.148;-1.554;2023-07-30T12:06:58;101185.91;;;24.33;64.33
46464;BME280;32161;48.148;-1.554;2023-07-30T12:09:28;101192.00;;;24.35;64.85
46464;BME280;32161;48.148;-1.554;2023-07-30T12:11:58;101189.22;;;24.35;64.90
46464;BME280;32161;48.148;-1.554;2023-07-30T12:14:27;101190.16;;;24.30;64.27
46464;BME280;32161;48.148;-1.554;2023-07-30T12:16:59;101198.69;;;24.20;66.05
46464;BME280;32161;48.148;-1.554;2023-07-30T12:19:27;101192.53;;;24.09;65.40
46464;BME280;32161;48.148;-1.554;2023-07-30T12:21:54;101199.22;;;24.08;65.60
46464;BME280;32161;48.148;-1.554;2023-07-30T12:24:22;101196.03;;;24.01;64.77
46464;BME280;32161;48.148;-1.554;2023-07-30T12:26:50;101205.41;;;24.05;65.47
46464;BME280;32161;48.148;-1.554;2023-07-30T12:29:17;101196.56;;;23.90;65.25
46464;BME280;32161;48.148;-1.554;2023-07-30T12:31:45;101197.19;;;23.86;64.86
46464;BME280;32161;48.148;-1.554;2023-07-30T12:34:15;101209.84;;;23.93;66.11
46464;BME280;32161;48.148;-1.554;2023-07-30T12:36:43;101211.69;;;23.97;65.74
46464;BME280;32161;48.148;-1.554;2023-07-30T12:39:10;101203.34;;;23.97;65.74
46464;BME280;32161;48.148;-1.554;2023-07-30T12:41:38;101219.28;;;23.78;64.65
46464;BME280;32161;48.148;-1.554;2023-07-30T12:44:07;101220.53;;;23.72;65.43